Time;durP1;ratioP1;P1;durP2;ratioP2;P2;SDS_P1;SDS_P2;PMS_P1;PMS_P2;Temp;Humidity;BMP_temperature;BMP_pressure;BME280_temperature;BME280_humidity;BME280_pressure;Samples;Min_cycle;Max_cycle;Signal;HPM_P1;HPM_P2
2022/05/21 00:00:28;;;;;;;5.20;2.00;;;;;;;18.10;66.67;98018.63;5112717;28;20035;-72
2022/05/21 00:02:53;;;;;;;4.65;2.33;;;;;;;18.08;67.38;98009.84;5110651;28;20573;-71
2022/05/21 00:05:21;;;;;;;5.85;2.40;;;;;;;18.08;66.98;98000.69;5111272;28;20035;-72
2022/05/21 00:07:46;;;;;;;3.67;2.50;;;;;;;18.06;68.10;98006.63;5112398;28;20027;-72
2022/05/21 00:10:13;;;;;;;4.72;2.45;;;;;;;18.06;67.83;98003.03;5112599;28;20027;-71
2022/05/21 00:12:39;;;;;;;6.97;2.55;;;;;;;18.02;68.15;97996.56;5111574;28;20854;-70
2022/05/21 00:15:06;;;;;;;8.00;2.90;;;;;;;18.00;67.15;98005.25;5113047;28;20031;-71
2022/05/21 00:17:31;;;;;;;7.30;3.40;;;;;;;18.00;67.92;98013.59;5112648;28;20026;-72
2022/05/21 00:19:57;;;;;;;7.50;3.22;;;;;;;17.97;67.71;98008.72;5113101;28;20012;-72
2022/05/21 00:22:22;;;;;;;8.50;3.72;;;;;;;17.96;67.60;98016.22;5113208;28;20483;-72
2022/05/21 00:24:48;;;;;;;8.45;3.35;;;;;;;17.97;67.88;98012.28;5111337;28;20728;-71
2022/05/21 00:27:14;;;;;;;6.45;3.40;;;;;;;17.94;68.30;98007.44;5110912;28;20463;-72
2022/05/21 00:29:39;;;;;;;7.13;3.38;;;;;;;17.89;67.80;98006.91;5111361;28;20048;-72
2022/05/21 00:32:05;;;;;;;6.15;3.13;;;;;;;17.90;68.06;98011.31;5112189;28;20012;-72
2022/05/21 00:34:31;;;;;;;7.55;3.20;;;;;;;17.88;67.78;98010.84;5112644;28;20024;-72
2022/05/21 00:36:57;;;;;;;7.57;3.50;;;;;;;17.90;67.72;98011.31;5110957;28;20374;-72
2022/05/21 00:39:22;;;;;;;5.82;3.50;;;;;;;17.89;67.75;98016.06;5111348;28;20020;-72
2022/05/21 00:41:48;;;;;;;6.53;3.17;;;;;;;17.89;67.41;98020.78;5111419;28;20083;-72
2022/05/21 00:44:14;;;;;;;5.82;3.40;;;;;;;17.88;68.08;98033.03;5111047;28;20372;-72
2022/05/21 00:46:43;;;;;;;5.75;3.10;;;;;;;17.86;69.33;98034.19;5112039;28;20023;-73
2022/05/21 00:49:22;;;;;;;7.70;3.50;;;;;;;17.82;68.04;98026.97;5111594;28;20020;-72
2022/05/21 00:51:53;;;;;;;4.55;3.22;;;;;;;17.79;67.96;98027.66;5111388;28;20028;-72
2022/05/21 00:54:22;;;;;;;6.38;3.35;;;;;;;17.78;67.85;98032.41;5111113;28;20034;-72
2022/05/21 00:56:51;;;;;;;;;;;;;;;17.78;68.40;98034.38;5110581;28;20089;-72
2022/05/21 01:02:05;;;;;;;7.30;3.70;;;;;;;17.70;68.33;98047.25;5109663;28;20034;-72
2022/05/21 01:04:32;;;;;;;7.32;3.20;;;;;;;17.70;68.58;98055.56;5111534;28;20587;-72
2022/05/21 01:07:01;;;;;;;9.05;3.63;;;;;;;17.70;68.37;98050.03;5110173;28;20525;-73
2022/05/21 01:09:26;;;;;;;6.13;3.40;;;;;;;17.73;69.45;98048.50;5110923;28;20055;-72
2022/05/21 01:11:53;;;;;;;8.52;3.70;;;;;;;17.71;70.02;98041.34;5111473;28;20070;-72
2022/05/21 01:14:20;;;;;;;9.40;3.58;;;;;;;17.74;69.25;98052.88;5111025;28;20022;-72
2022/05/21 01:16:48;;;;;;;8.07;3.63;;;;;;;17.74;68.66;98061.19;5111378;28;20361;-72
2022/05/21 01:19:13;;;;;;;9.85;4.15;;;;;;;17.80;68.58;98062.56;5111082;28;20490;-70
2022/05/21 01:21:39;;;;;;;8.02;4.10;;;;;;;17.83;68.47;98056.31;5108559;28;20015;-71
2022/05/21 01:24:05;;;;;;;6.22;3.38;;;;;;;17.85;68.98;98043.69;5111361;28;20023;-70
2022/05/21 01:26:33;;;;;;;7.05;3.25;;;;;;;17.85;68.54;98031.81;5106090;28;20030;-71
2022/05/21 01:28:59;;;;;;;7.18;3.53;;;;;;;17.84;68.35;98044.06;5110351;28;20126;-70
2022/05/21 01:31:25;;;;;;;7.70;3.45;;;;;;;17.85;68.50;98042.91;5111145;28;20033;-70
2022/05/21 01:33:50;;;;;;;5.28;3.00;;;;;;;17.83;68.44;98046.00;5109740;28;20396;-70
2022/05/21 01:36:17;;;;;;;5.38;2.72;;;;;;;17.85;69.43;98049.22;5111022;28;20384;-69
2022/05/21 01:38:43;;;;;;;5.65;2.58;;;;;;;17.85;68.75;98042.91;5108899;27;20135;-70
2022/05/21 01:41:09;;;;;;;5.03;2.78;;;;;;;17.82;68.24;98029.72;5111184;28;20027;-70
2022/05/21 01:46:19;;;;;;;6.05;2.60;;;;;;;17.78;68.26;98026.84;5111219;28;20107;-70
2022/05/21 01:48:45;;;;;;;5.45;2.38;;;;;;;17.78;68.45;98026.84;5109950;28;20110;-71
2022/05/21 01:51:11;;;;;;;4.90;2.13;;;;;;;17.79;68.08;98027.66;5109810;28;20031;-71
2022/05/21 01:53:38;;;;;;;4.25;2.22;;;;;;;17.74;68.75;98034.25;5110351;28;20026;-70
2022/05/21 01:56:04;;;;;;;4.30;2.00;;;;;;;17.76;69.40;98033.91;5109701;28;20051;-70
2022/05/21 01:58:30;;;;;;;4.35;2.00;;;;;;;17.78;69.07;98024.06;5110106;28;20015;-70
2022/05/21 02:00:56;;;;;;;3.13;1.75;;;;;;;17.78;68.56;98026.84;5110618;28;20061;-70
2022/05/21 02:03:22;;;;;;;4.70;2.30;;;;;;;17.80;67.93;98049.50;5110519;28;20392;-70
2022/05/21 02:05:48;;;;;;;3.42;1.80;;;;;;;17.83;68.21;98053.53;5110748;28;20051;-71
2022/05/21 02:08:14;;;;;;;3.22;2.03;;;;;;;17.86;67.92;98061.94;5110134;28;20443;-70
2022/05/21 02:10:41;;;;;;;5.40;2.75;;;;;;;17.88;67.49;98055.22;5111293;28;20082;-72
2022/05/21 02:13:19;;;;;;;4.50;2.17;;;;;;;17.90;67.79;98044.59;5110638;28;20032;-72
2022/05/21 02:15:45;;;;;;;6.53;2.30;;;;;;;17.90;67.59;98042.63;5110268;28;20015;-72
2022/05/21 02:18:12;;;;;;;6.47;2.28;;;;;;;17.88;67.32;98042.19;5109899;28;20123;-73
2022/05/21 02:20:38;;;;;;;8.63;2.90;;;;;;;17.88;67.61;98052.47;5110511;28;20066;-72
2022/05/21 02:23:04;;;;;;;5.30;2.38;;;;;;;17.89;67.52;98056.84;5110532;28;20023;-72
2022/05/21 02:25:30;;;;;;;6.75;2.30;;;;;;;17.89;67.75;98040.19;5110452;28;20428;-72
2022/05/21 02:27:55;;;;;;;5.50;2.45;;;;;;;17.90;67.40;98056.50;5110092;28;20020;-72
2022/05/21 02:30:20;;;;;;;5.15;2.25;;;;;;;17.90;67.17;98050.13;5109960;28;20398;-72
2022/05/21 02:32:46;;;;;;;5.50;2.17;;;;;;;17.92;67.21;98045.88;5108329;28;20016;-73
2022/05/21 02:35:12;;;;;;;3.28;2.10;;;;;;;17.97;67.06;98050.34;5110120;28;20454;-72
2022/05/21 02:40:21;;;;;;;4.95;2.78;;;;;;;18.04;67.11;98058.06;5110116;28;20042;-72
2022/05/21 02:42:47;;;;;;;5.10;2.22;;;;;;;18.04;66.60;98050.56;5110797;28;20020;-72
2022/05/21 02:45:21;;;;;;;3.80;1.98;;;;;;;18.06;66.40;98051.00;5110601;28;20024;-72
2022/05/21 02:47:47;;;;;;;3.05;2.20;;;;;;;18.08;66.85;98050.63;5111280;28;20019;-73
2022/05/21 02:50:16;;;;;;;4.85;2.20;;;;;;;18.08;66.65;98054.25;5111524;28;20023;-72
2022/05/21 02:52:42;;;;;;;8.48;2.50;;;;;;;18.06;66.74;98056.56;5115477;28;20038;-72
2022/05/21 02:55:11;;;;;;;4.82;2.28;;;;;;;18.05;66.40;98054.13;5115207;28;20027;-73
2022/05/21 02:57:36;;;;;;;6.28;2.70;;;;;;;18.03;67.02;98040.63;5115104;28;20479;-73
2022/05/21 03:00:08;;;;;;;7.50;2.70;;;;;;;18.02;67.13;98040.97;5114942;28;20020;-72
2022/05/21 03:02:33;;;;;;;9.05;3.17;;;;;;;18.02;66.23;98052.88;5115209;28;20035;-72
2022/05/21 03:04:59;;;;;;;5.50;2.60;;;;;;;18.04;66.46;98041.41;5114972;28;20031;-72
2022/05/21 03:07:24;;;;;;;6.15;2.28;;;;;;;18.06;66.62;98048.25;5111197;28;20475;-72
2022/05/21 03:12:35;;;;;;;5.82;2.17;;;;;;;18.09;66.37;98046.69;5112675;28;20073;-72
2022/05/21 03:15:00;;;;;;;4.30;1.98;;;;;;;18.13;67.01;98053.16;5115065;28;20031;-73
2022/05/21 03:17:27;;;;;;;3.47;1.88;;;;;;;18.14;66.61;98047.22;5114796;28;20034;-72
2022/05/21 03:19:53;;;;;;;6.90;2.25;;;;;;;18.15;66.77;98043.28;5114545;28;20032;-72
2022/05/21 03:22:19;;;;;;;3.97;2.20;;;;;;;18.19;66.50;98048.97;5113555;28;20520;-72
2022/05/21 03:24:44;;;;;;;6.63;2.15;;;;;;;18.21;66.38;98043.03;5114350;28;20106;-72
2022/05/21 03:27:10;;;;;;;4.68;2.22;;;;;;;18.26;66.61;98037.22;5112980;28;20024;-72
2022/05/21 03:29:35;;;;;;;4.43;2.25;;;;;;;18.28;66.70;98032.13;5114062;28;20525;-72
2022/05/21 03:32:01;;;;;;;5.32;2.05;;;;;;;18.30;66.30;98036.16;5114302;28;20019;-74
2022/05/21 03:34:26;;;;;;;5.40;2.00;;;;;;;18.37;66.49;98040.25;5113958;28;20035;-74
2022/05/21 03:36:52;;;;;;;5.57;2.03;;;;;;;18.36;66.01;98027.53;5113490;28;20090;-73
2022/05/21 03:39:18;;;;;;;6.03;2.25;;;;;;;18.42;66.13;98040.81;5112318;27;20035;-73
2022/05/21 03:41:44;;;;;;;4.18;2.00;;;;;;;18.43;66.81;98034.09;5113122;28;20031;-72
2022/05/21 03:44:09;;;;;;;6.10;2.60;;;;;;;18.43;66.10;98042.41;5112538;28;20012;-73
2022/05/21 03:46:38;;;;;;;5.10;2.10;;;;;;;18.43;65.93;98045.19;5113239;28;20024;-73
2022/05/21 03:49:04;;;;;;;7.15;2.22;;;;;;;18.47;65.63;98053.59;5110597;28;20118;-71
2022/05/21 03:51:30;;;;;;;3.35;1.90;;;;;;;18.48;65.67;98052.44;5112670;28;20019;-72
2022/05/21 03:53:55;;;;;;;5.93;2.40;;;;;;;18.51;65.51;98048.16;5111823;28;20027;-72
2022/05/21 03:56:21;;;;;;;5.53;2.45;;;;;;;18.54;65.54;98056.56;5111162;28;20562;-71
2022/05/21 03:58:46;;;;;;;4.97;2.10;;;;;;;18.58;65.38;98059.41;5111767;27;20494;-70
2022/05/21 04:01:13;;;;;;;5.10;2.20;;;;;;;18.59;65.36;98053.53;5111714;28;20478;-70
2022/05/21 04:03:38;;;;;;;6.75;2.55;;;;;;;18.62;65.54;98067.84;5111548;28;20048;-69
2022/05/21 04:06:04;;;;;;;4.47;2.22;;;;;;;18.62;65.26;98060.31;5109973;28;20076;-69
2022/05/21 04:08:29;;;;;;;4.32;2.40;;;;;;;18.64;65.50;98060.75;5114298;27;20494;-71
2022/05/21 04:10:54;;;;;;;5.22;2.88;;;;;;;18.65;65.05;98067.91;5111895;28;20469;-71
2022/05/21 04:13:20;;;;;;;6.00;2.40;;;;;;;18.66;64.98;98063.97;5111897;28;20020;-71
2022/05/21 04:15:46;;;;;;;5.22;2.53;;;;;;;18.69;65.03;98066.03;5112655;28;20019;-71
2022/05/21 04:18:11;;;;;;;6.45;2.58;;;;;;;18.70;64.93;98070.44;5112260;28;20020;-70
2022/05/21 04:20:37;;;;;;;4.82;2.10;;;;;;;18.74;65.16;98073.31;5111965;28;20962;-71
2022/05/21 04:23:03;;;;;;;6.80;2.60;;;;;;;18.73;64.71;98082.81;5112248;28;20494;-71
2022/05/21 04:25:29;;;;;;;4.18;2.53;;;;;;;18.75;65.30;98088.78;5110960;28;20100;-71
2022/05/21 04:27:54;;;;;;;5.70;2.25;;;;;;;18.72;64.91;98089.53;5109987;28;20063;-72
2022/05/21 04:30:28;;;;;;;4.13;2.25;;;;;;;18.72;65.07;98118.09;5109357;28;20755;-71
2022/05/21 04:32:57;;;;;;;7.47;2.38;;;;;;;18.71;65.02;98122.03;5112712;28;20069;-71
2022/05/21 04:35:24;;;;;;;7.07;2.40;;;;;;;18.70;65.08;98123.22;5108670;28;20494;-70
2022/05/21 04:37:50;;;;;;;7.72;2.30;;;;;;;18.71;65.48;98132.34;5112454;28;20471;-71
2022/05/21 04:40:19;;;;;;;8.45;2.72;;;;;;;18.65;65.15;98131.00;5108719;28;20036;-71
2022/05/21 04:42:45;;;;;;;4.00;2.22;;;;;;;18.53;66.29;98143.03;5110270;28;20055;-69
2022/05/21 04:45:12;;;;;;;7.13;2.60;;;;;;;18.37;65.86;98145.75;5113230;28;20080;-70
2022/05/21 04:47:38;;;;;;;4.10;2.60;;;;;;;18.23;66.89;98135.06;5112963;28;20038;-71
2022/05/21 04:50:07;;;;;;;7.40;2.67;;;;;;;18.10;68.35;98149.03;5112615;28;20055;-71
2022/05/21 04:52:33;;;;;;;5.45;2.67;;;;;;;17.99;67.25;98145.94;5112729;28;20061;-71
2022/05/21 04:55:01;;;;;;;5.10;2.70;;;;;;;17.96;68.18;98148.59;5112899;28;20023;-70
2022/05/21 04:57:27;;;;;;;7.82;3.05;;;;;;;17.91;68.17;98144.13;5112652;28;20374;-71
2022/05/21 04:59:52;;;;;;;7.57;2.75;;;;;;;17.94;68.08;98148.94;5112867;28;20019;-70
2022/05/21 05:02:18;;;;;;;5.97;2.58;;;;;;;17.94;68.55;98157.25;5111466;28;20032;-71
2022/05/21 05:04:43;;;;;;;7.07;2.70;;;;;;;17.97;68.48;98153.78;5110993;28;20459;-71
2022/05/21 05:07:09;;;;;;;6.50;3.00;;;;;;;18.02;68.52;98149.19;5111497;28;20538;-70
2022/05/21 05:09:43;;;;;;;7.53;3.08;;;;;;;18.04;68.76;98155.19;5111245;28;20373;-72
2022/05/21 05:12:09;;;;;;;8.75;3.00;;;;;;;18.10;69.26;98157.38;5110751;28;20016;-72
2022/05/21 05:14:35;;;;;;;6.13;2.92;;;;;;;18.25;69.22;98163.28;5110399;28;20030;-71
2022/05/21 05:17:01;;;;;;;7.68;3.35;;;;;;;18.38;69.17;98158.47;5108094;28;20016;-72
2022/05/21 05:19:29;;;;;;;5.45;3.15;;;;;;;18.47;69.64;98161.91;5110767;28;20053;-71
2022/05/21 05:21:55;;;;;;;8.23;3.35;;;;;;;18.54;69.47;98166.84;5111159;28;20102;-71
2022/05/21 05:24:20;;;;;;;4.97;2.50;;;;;;;18.60;70.35;98159.84;5111019;28;20100;-71
2022/05/21 05:26:45;;;;;;;4.60;3.15;;;;;;;18.66;70.40;98157.63;5111847;28;20103;-71
2022/05/21 05:29:11;;;;;;;6.93;3.28;;;;;;;18.73;69.15;98163.38;5109112;28;20043;-71
2022/05/21 05:31:36;;;;;;;6.72;3.47;;;;;;;18.80;69.20;98154.41;5111274;28;20102;-71
2022/05/21 05:34:02;;;;;;;5.70;3.30;;;;;;;18.89;69.26;98164.16;5111099;28;20022;-71
2022/05/21 05:36:28;;;;;;;7.35;3.17;;;;;;;19.01;69.11;98171.63;5110878;28;20027;-72
2022/05/21 05:38:54;;;;;;;6.15;3.10;;;;;;;19.03;69.18;98177.63;5110788;28;20023;-70
2022/05/21 05:41:19;;;;;;;5.60;3.13;;;;;;;19.06;68.67;98170.53;5110819;28;20016;-71
2022/05/21 05:43:45;;;;;;;6.30;2.65;;;;;;;19.15;68.28;98173.13;5110921;28;20382;-71
2022/05/21 05:46:10;;;;;;;5.75;2.50;;;;;;;19.19;68.19;98177.59;5110811;28;20034;-71
2022/05/21 05:48:36;;;;;;;3.67;2.45;;;;;;;19.20;67.85;98170.06;5110624;28;20467;-71
2022/05/21 05:51:03;;;;;;;6.18;2.70;;;;;;;19.14;67.35;98177.91;5110782;28;20012;-72
2022/05/21 05:53:28;;;;;;;3.65;2.60;;;;;;;19.07;67.55;98174.13;5110300;28;20031;-71
2022/05/21 05:55:54;;;;;;;4.93;2.60;;;;;;;18.97;67.41;98178.25;5110667;28;20460;-72
2022/05/21 06:01:06;;;;;;;3.78;2.47;;;;;;;18.78;67.01;98182.53;5110327;28;20034;-71
2022/05/21 06:03:34;;;;;;;4.10;2.35;;;;;;;18.74;66.77;98193.56;5109461;28;20040;-72
2022/05/21 06:06:00;;;;;;;3.53;2.22;;;;;;;18.75;66.58;98188.78;5110609;28;20016;-73
2022/05/21 06:08:25;;;;;;;3.45;2.63;;;;;;;18.82;66.17;98193.75;5110009;28;20027;-71
2022/05/21 06:10:51;;;;;;;5.80;2.55;;;;;;;18.89;65.79;98197.50;5110649;28;20088;-72
2022/05/21 06:13:17;;;;;;;3.05;2.20;;;;;;;18.98;65.68;98202.09;5110110;28;20040;-72
2022/05/21 06:15:43;;;;;;;3.38;2.10;;;;;;;19.08;65.23;98207.13;5110769;28;20066;-72
2022/05/21 06:18:11;;;;;;;2.65;2.08;;;;;;;19.17;64.93;98216.06;5109408;28;20031;-72
2022/05/21 06:20:37;;;;;;;7.63;2.40;;;;;;;19.28;64.67;98226.66;5109936;28;20142;-72
2022/05/21 06:23:03;;;;;;;3.17;2.10;;;;;;;19.31;64.07;98228.72;5110235;28;20122;-72
2022/05/21 06:25:30;;;;;;;5.45;2.65;;;;;;;19.30;63.86;98232.66;5109901;28;20012;-72
2022/05/21 06:27:55;;;;;;;8.15;3.22;;;;;;;19.29;63.69;98236.59;5109938;28;20364;-72
2022/05/21 06:30:23;;;;;;;6.18;2.20;;;;;;;19.16;61.96;98261.72;5108229;28;20059;-71
2022/05/21 06:32:49;;;;;;;4.60;2.10;;;;;;;18.96;61.00;98252.47;5110084;28;20020;-72
2022/05/21 06:35:17;;;;;;;5.57;1.30;;;;;;;18.89;58.17;98247.50;5109955;28;20032;-72
2022/05/21 06:37:42;;;;;;;2.92;1.10;;;;;;;18.85;58.43;98273.59;5110154;28;20369;-72
2022/05/21 06:40:09;;;;;;;2.55;1.13;;;;;;;18.95;58.48;98261.16;5110465;28;20033;-71
2022/05/21 06:42:35;;;;;;;5.38;1.00;;;;;;;19.02;55.28;98259.38;5109909;28;20471;-71
2022/05/21 06:45:00;;;;;;;3.53;1.00;;;;;;;19.11;54.63;98288.97;5110359;28;20020;-71
2022/05/21 06:47:26;;;;;;;4.55;0.90;;;;;;;19.04;53.87;98295.97;5106914;28;20028;-71
2022/05/21 06:49:55;;;;;;;2.95;0.70;;;;;;;19.01;53.77;98298.66;5110650;28;20028;-72
2022/05/21 06:52:26;;;;;;;4.18;0.73;;;;;;;18.92;53.04;98297.97;5110304;28;20055;-72
2022/05/21 06:54:53;;;;;;;1.63;0.70;;;;;;;18.88;53.05;98298.69;5110347;28;20523;-72
2022/05/21 06:57:21;;;;;;;2.78;0.73;;;;;;;18.75;52.29;98316.56;5110397;28;20058;-71
2022/05/21 06:59:46;;;;;;;2.88;0.50;;;;;;;18.60;51.07;98326.47;5109543;28;20032;-71
2022/05/21 07:02:12;;;;;;;5.10;0.77;;;;;;;18.47;51.14;98314.63;5109852;28;20429;-72
2022/05/21 07:07:34;;;;;;;1.90;0.50;;;;;;;18.36;51.53;98297.66;5109560;28;20297;-72
2022/05/21 07:10:09;;;;;;;2.83;0.55;;;;;;;18.36;51.26;98311.53;5109451;28;20043;-72
2022/05/21 07:12:35;;;;;;;4.18;0.70;;;;;;;18.41;51.45;98293.81;5109780;28;20020;-72
2022/05/21 07:15:02;;;;;;;1.02;0.40;;;;;;;18.45;51.27;98308.59;5109211;28;20507;-72
2022/05/21 07:17:28;;;;;;;6.55;0.73;;;;;;;18.51;51.71;98317.50;5102462;28;20032;-72
2022/05/21 07:19:53;;;;;;;2.85;0.60;;;;;;;18.57;51.06;98324.41;5108889;28;20034;-72
2022/05/21 07:22:19;;;;;;;1.02;0.60;;;;;;;18.62;50.67;98320.59;5110484;28;20070;-72
2022/05/21 07:24:44;;;;;;;2.00;0.40;;;;;;;18.71;50.42;98329.59;5110384;28;20528;-72
2022/05/21 07:27:12;;;;;;;2.80;0.50;;;;;;;18.80;49.83;98341.31;5109979;28;20396;-72
2022/05/21 07:29:38;;;;;;;4.05;0.52;;;;;;;18.92;49.06;98342.44;5110038;28;20514;-72
2022/05/21 07:32:05;;;;;;;2.78;0.47;;;;;;;19.02;48.24;98345.53;5110188;28;20039;-71
2022/05/21 07:34:31;;;;;;;3.70;0.57;;;;;;;19.13;47.06;98333.91;5106371;28;20494;-71
2022/05/21 07:36:56;;;;;;;5.05;0.68;;;;;;;18.99;46.02;98374.03;5106107;28;20027;-72
2022/05/21 07:39:22;;;;;;;6.05;0.80;;;;;;;18.88;46.04;98342.34;5114586;28;20024;-72
2022/05/21 07:41:48;;;;;;;4.88;0.90;;;;;;;18.81;46.41;98342.16;5110979;28;20024;-72
2022/05/21 07:44:13;;;;;;;5.55;0.68;;;;;;;18.80;45.94;98343.31;5113783;28;20543;-72
2022/05/21 07:46:39;;;;;;;4.15;0.60;;;;;;;18.84;45.94;98336.69;5114287;28;20074;-72
2022/05/21 07:49:04;;;;;;;2.80;0.50;;;;;;;18.93;45.68;98369.88;5113287;28;20035;-72
2022/05/21 07:51:30;;;;;;;2.78;0.40;;;;;;;18.98;44.89;98349.38;5114080;28;20027;-72
2022/05/21 07:53:56;;;;;;;3.92;0.40;;;;;;;18.98;44.64;98338.28;5112226;28;20032;-73
2022/05/21 07:56:22;;;;;;;4.47;0.40;;;;;;;18.97;44.73;98350.56;5111916;28;20027;-72
2022/05/21 07:58:49;;;;;;;1.98;0.40;;;;;;;18.92;44.15;98359.13;5111131;28;20034;-72
2022/05/21 08:01:16;;;;;;;1.40;0.40;;;;;;;18.84;44.27;98358.13;5111124;28;20031;-72
2022/05/21 08:03:41;;;;;;;1.90;0.32;;;;;;;18.79;44.10;98350.03;5112292;28;20032;-72
2022/05/21 08:06:07;;;;;;;1.80;0.40;;;;;;;18.70;43.51;98336.31;5113914;28;20031;-72
2022/05/21 08:08:32;;;;;;;5.72;1.25;;;;;;;18.64;44.00;98351.59;5113306;28;20012;-73
2022/05/21 08:10:58;;;;;;;1.27;0.32;;;;;;;18.61;44.43;98347.53;5111717;28;20535;-72
2022/05/21 08:13:23;;;;;;;3.35;0.40;;;;;;;18.61;44.20;98347.53;5111631;28;20076;-72
2022/05/21 08:15:49;;;;;;;4.80;0.75;;;;;;;18.63;44.95;98352.75;5111743;28;20080;-72
2022/05/21 08:18:14;;;;;;;3.03;0.50;;;;;;;18.68;45.44;98364.41;5112658;28;20035;-72
2022/05/21 08:20:40;;;;;;;3.50;0.60;;;;;;;18.77;45.80;98346.78;5113916;28;20395;-72
2022/05/21 08:28:39;;;;;;;2.35;0.47;;;;;;;18.94;45.31;98357.59;5112067;28;20104;-72
2022/05/21 08:31:04;;;;;;;2.90;0.60;;;;;;;18.97;45.00;98359.69;5110274;28;20032;-72
2022/05/21 08:33:30;;;;;;;3.03;0.88;;;;;;;19.03;45.57;98363.81;5113364;28;20035;-72
2022/05/21 08:35:55;;;;;;;2.20;0.50;;;;;;;19.04;45.03;98359.09;5112188;28;20035;-72
2022/05/21 08:38:21;;;;;;;0.70;0.40;;;;;;;19.03;45.15;98352.72;5109905;28;20023;-73
2022/05/21 08:40:56;;;;;;;1.17;0.30;;;;;;;19.04;45.46;98354.31;5111188;28;20399;-72
2022/05/21 08:43:36;;;;;;;3.22;0.60;;;;;;;19.11;45.58;98355.69;5108654;28;20039;-72
2022/05/21 08:46:15;;;;;;;5.72;0.50;;;;;;;19.19;46.09;98363.06;5107196;28;20479;-72
2022/05/21 08:48:48;;;;;;;2.15;0.40;;;;;;;19.23;45.19;98371.47;5112888;28;20076;-71
2022/05/21 08:51:19;;;;;;;1.95;0.40;;;;;;;19.23;45.34;98366.75;5112586;28;20066;-71
2022/05/21 08:53:50;;;;;;;1.13;0.50;;;;;;;19.26;45.37;98356.88;5111709;28;20028;-72
2022/05/21 08:56:17;;;;;;;1.52;0.60;;;;;;;19.28;45.89;98366.50;5112079;28;20032;-72
2022/05/21 08:58:53;;;;;;;3.25;0.40;;;;;;;19.38;45.89;98381.00;5108604;28;20543;-72
2022/05/21 09:01:21;;;;;;;2.55;0.47;;;;;;;19.42;45.70;98360.47;5112394;28;20375;-73
2022/05/21 09:03:50;;;;;;;2.00;0.40;;;;;;;19.53;45.33;98360.75;5111600;28;20034;-72
2022/05/21 09:06:18;;;;;;;0.77;0.57;;;;;;;19.62;45.79;98361.38;5112083;28;20035;-71
2022/05/21 09:08:59;;;;;;;2.95;0.50;;;;;;;19.62;44.71;98353.03;5110954;28;20069;-72
2022/05/21 09:11:34;;;;;;;1.85;0.40;;;;;;;19.64;44.69;98353.50;5107572;28;20540;-73
2022/05/21 09:13:59;;;;;;;2.50;0.50;;;;;;;19.67;44.45;98353.94;5108413;28;20434;-72
2022/05/21 09:19:09;;;;;;;5.78;0.60;;;;;;;19.76;44.29;98354.56;5111341;28;20055;-72
2022/05/21 09:21:41;;;;;;;1.77;0.50;;;;;;;19.75;43.35;98348.19;5111342;28;20039;-73
2022/05/21 09:24:08;;;;;;;1.77;0.40;;;;;;;19.79;43.95;98346.28;5112128;28;20023;-72
2022/05/21 09:26:42;;;;;;;1.00;0.50;;;;;;;19.86;44.25;98373.47;5112200;28;20027;-72
2022/05/21 09:29:19;;;;;;;2.85;0.60;;;;;;;19.90;43.56;98352.13;5109781;28;20066;-72
2022/05/21 09:31:45;;;;;;;1.10;0.50;;;;;;;19.93;43.77;98350.63;5110815;28;20032;-73
2022/05/21 09:34:28;;;;;;;3.63;0.60;;;;;;;20.03;44.22;98355.59;5108153;28;20038;-73
2022/05/21 09:36:56;;;;;;;2.58;0.50;;;;;;;20.13;43.73;98347.88;5109290;28;20528;-72
2022/05/21 09:39:32;;;;;;;2.65;0.63;;;;;;;20.21;43.14;98363.56;5112231;28;20476;-72
2022/05/21 09:45:21;;;;;;;1.35;0.40;;;;;;;20.23;43.17;98350.88;5109144;28;20020;-73
2022/05/21 09:45:23;;;;;;;0.40;0.40;;;;;;;20.27;42.58;98353.78;5111542;28;20111;-73
2022/05/21 09:48:03;;;;;;;1.48;0.57;;;;;;;20.23;42.84;98353.66;5107377;28;20019;-72
2022/05/21 09:50:30;;;;;;;1.85;0.60;;;;;;;20.24;42.14;98354.50;5110949;28;20035;-76
2022/05/21 09:52:56;;;;;;;2.78;0.60;;;;;;;20.22;42.42;98351.25;5110784;28;20027;-73
2022/05/21 09:55:28;;;;;;;0.98;0.40;;;;;;;20.31;42.49;98359.41;5111381;28;20031;-73
2022/05/21 09:58:06;;;;;;;1.60;0.50;;;;;;;20.34;41.51;98353.13;5111628;28;20030;-72
2022/05/21 10:00:33;;;;;;;0.80;0.50;;;;;;;20.35;41.85;98366.69;5109333;28;20475;-72
2022/05/21 10:03:02;;;;;;;2.60;0.50;;;;;;;20.38;41.96;98379.06;5108107;28;20031;-74
2022/05/21 10:05:37;;;;;;;1.58;0.45;;;;;;;20.47;41.45;98362.97;5111366;28;20084;-73
2022/05/21 10:11:19;;;;;;;1.23;0.60;;;;;;;20.70;41.57;98369.78;5110405;28;20055;-75
2022/05/21 10:14:11;;;;;;;1.35;0.50;;;;;;;20.90;41.39;98353.91;5102525;28;20188;-73
2022/05/21 10:17:04;;;;;;;1.58;0.70;;;;;;;21.09;41.48;98361.44;5105589;28;20034;-73
2022/05/21 10:19:58;;;;;;;2.53;0.60;;;;;;;21.32;40.50;98372.63;5110822;28;20525;-72
2022/05/21 10:22:49;;;;;;;3.60;0.63;;;;;;;21.32;39.12;98380.16;5111463;28;20105;-73
2022/05/21 10:25:20;;;;;;;1.88;0.50;;;;;;;21.26;40.01;98379.66;5107877;28;20483;-72
2022/05/21 10:28:26;;;;;;;3.40;0.70;;;;;;;21.22;40.11;98376.00;5110033;28;20463;-73
2022/05/21 10:31:29;;;;;;;2.50;0.60;;;;;;;21.19;40.25;98374.78;5035686;28;20079;-73
2022/05/21 10:34:25;;;;;;;12.43;4.05;;;;;;;21.17;40.18;98373.50;5039030;28;20063;-75
2022/05/21 10:37:01;;;;;;;5.07;1.88;;;;;;;21.23;40.20;98367.25;5104340;28;20123;-74
2022/05/21 10:39:58;;;;;;;2.53;0.73;;;;;;;21.34;40.48;98375.00;5109680;28;20028;-75
2022/05/21 10:43:00;;;;;;;1.98;0.73;;;;;;;21.48;40.41;98374.47;5107628;28;20023;-74
2022/05/21 10:45:29;;;;;;;7.32;3.95;;;;;;;21.52;40.54;98375.34;5104929;28;20039;-75
2022/05/21 10:48:22;;;;;;;2.85;0.90;;;;;;;21.56;40.14;98373.41;5106897;28;20475;-74
2022/05/21 10:50:55;;;;;;;2.38;1.25;;;;;;;21.59;40.11;98378.25;5105816;28;20036;-73
2022/05/21 10:53:44;;;;;;;4.00;1.05;;;;;;;21.69;40.22;98380.47;5107549;28;20043;-73
2022/05/21 10:56:18;;;;;;;;;;;;;;;21.84;40.06;98377.88;5109643;28;20522;-74
2022/05/21 10:59:34;;;;;;;6.28;1.90;;;;;;;21.92;40.09;98376.81;5107814;28;19969;-73
2022/05/21 11:02:35;;;;;;;3.38;1.00;;;;;;;22.01;39.46;98376.53;5105377;28;20024;-73
2022/05/21 11:05:31;;;;;;;4.35;3.00;;;;;;;22.06;39.97;98387.41;5064690;28;20096;-73
2022/05/21 11:08:15;;;;;;;5.88;2.85;;;;;;;22.07;38.97;98388.22;5105754;28;20042;-74
2022/05/21 11:10:50;;;;;;;1.98;1.10;;;;;;;21.98;38.74;98385.69;5107440;28;20024;-74
2022/05/21 11:13:21;;;;;;;1.80;0.60;;;;;;;21.92;38.55;98388.00;5110982;28;20114;-74
2022/05/21 11:15:52;;;;;;;1.35;0.70;;;;;;;21.93;39.03;98386.00;5112736;28;20031;-75
2022/05/21 11:18:53;;;;;;;3.20;0.50;;;;;;;22.05;38.99;98382.22;5113921;28;20066;-74
2022/05/21 11:21:36;;;;;;;1.13;0.65;;;;;;;22.15;39.46;98387.94;5110881;28;20024;-74
2022/05/21 11:24:15;;;;;;;4.30;3.88;;;;;;;22.13;39.28;98398.69;5109234;28;20016;-75
2022/05/21 11:26:50;;;;;;;5.80;1.77;;;;;;;21.95;38.87;98384.44;5111899;28;20039;-74
2022/05/21 11:29:39;;;;;;;4.18;1.30;;;;;;;21.91;39.59;98408.72;5113390;28;20120;-75
2022/05/21 11:37:47;;;;;;;4.45;1.70;;;;;;;21.99;40.12;98393.69;5111807;28;20105;-75
2022/05/21 11:40:50;;;;;;;2.45;0.98;;;;;;;21.98;39.35;98394.09;5111506;28;20027;-74
2022/05/21 11:43:17;;;;;;;5.20;1.80;;;;;;;22.00;39.76;98400.88;5112418;28;20035;-76
2022/05/21 11:46:00;;;;;;;2.47;1.20;;;;;;;22.06;39.38;98403.38;5112951;28;20020;-75
2022/05/21 11:48:30;;;;;;;2.97;1.10;;;;;;;22.08;39.62;98398.22;5113657;28;20085;-75
2022/05/21 11:51:17;;;;;;;0.88;0.70;;;;;;;22.18;39.69;98393.97;5114645;28;20084;-75
2022/05/21 11:53:42;;;;;;;3.55;1.20;;;;;;;22.21;38.91;98401.59;5109840;28;20118;-76
2022/05/21 11:56:12;;;;;;;2.03;0.60;;;;;;;22.26;38.37;98410.44;5114418;28;20112;-74
2022/05/21 11:58:59;;;;;;;6.20;0.75;;;;;;;22.25;38.11;98403.25;5109764;28;20039;-74
2022/05/21 12:01:39;;;;;;;3.55;0.70;;;;;;;22.23;38.97;98404.81;5112679;28;20054;-75
2022/05/21 12:04:28;;;;;;;5.25;1.42;;;;;;;22.26;38.70;98399.28;5111218;28;20032;-74
2022/05/21 12:06:54;;;;;;;3.75;1.15;;;;;;;22.37;38.32;98395.84;5111842;28;20034;-76
2022/05/21 12:09:28;;;;;;;3.38;0.77;;;;;;;22.61;38.92;98383.44;5113390;28;20111;-77
2022/05/21 12:12:20;;;;;;;1.83;0.90;;;;;;;22.74;37.91;98409.97;5113148;28;20103;-77
2022/05/21 12:15:09;;;;;;;3.00;0.80;;;;;;;22.72;37.44;98397.53;5111657;28;20039;-78
2022/05/21 12:17:44;;;;;;;1.75;0.68;;;;;;;22.80;37.19;98402.03;5100543;28;20039;-78
2022/05/21 12:20:12;;;;;;;2.05;0.70;;;;;;;22.79;36.97;98399.63;5114117;28;20032;-77